sensor_id;sensor_type;location;lat;lon;timestamp;P1;durP1;ratioP1;P2;durP2;ratioP2
83556;SDS011;73523;55.740;13.276;2023-12-29T00:00:47;5.33;;;1.93;;
83556;SDS011;73523;55.740;13.276;2023-12-29T00:03:12;5.23;;;1.97;;
83556;SDS011;73523;55.740;13.276;2023-12-29T00:05:37;6.88;;;2.20;;
83556;SDS011;73523;55.740;13.276;2023-12-29T00:08:03;4.63;;;1.80;;
83556;SDS011;73523;55.740;13.276;2023-12-29T00:10:28;4.63;;;2.00;;
83556;SDS011;73523;55.740;13.276;2023-12-29T00:12:54;6.97;;;2.13;;
83556;SDS011;73523;55.740;13.276;2023-12-29T00:15:19;5.60;;;1.90;;
83556;SDS011;73523;55.740;13.276;2023-12-29T00:17:45;4.50;;;1.90;;
83556;SDS011;73523;55.740;13.276;2023-12-29T00:20:11;4.93;;;2.05;;
83556;SDS011;73523;55.740;13.276;2023-12-29T00:22:37;5.23;;;1.80;;
83556;SDS011;73523;55.740;13.276;2023-12-29T00:25:02;4.10;;;1.83;;
83556;SDS011;73523;55.740;13.276;2023-12-29T00:27:28;5.60;;;2.03;;
83556;SDS011;73523;55.740;13.276;2023-12-29T00:29:53;6.30;;;2.05;;
83556;SDS011;73523;55.740;13.276;2023-12-29T00:32:19;5.70;;;2.20;;
83556;SDS011;73523;55.740;13.276;2023-12-29T00:34:44;6.50;;;1.80;;
83556;SDS011;73523;55.740;13.276;2023-12-29T00:37:09;4.07;;;1.73;;
83556;SDS011;73523;55.740;13.276;2023-12-29T00:39:35;3.77;;;1.60;;
83556;SDS011;73523;55.740;13.276;2023-12-29T00:42:04;4.53;;;1.65;;
83556;SDS011;73523;55.740;13.276;2023-12-29T00:44:30;3.70;;;1.60;;
83556;SDS011;73523;55.740;13.276;2023-12-29T00:46:56;4.60;;;1.90;;
83556;SDS011;73523;55.740;13.276;2023-12-29T00:49:21;5.03;;;1.70;;
83556;SDS011;73523;55.740;13.276;2023-12-29T00:51:47;5.20;;;1.70;;
83556;SDS011;73523;55.740;13.276;2023-12-29T00:54:13;7.47;;;1.98;;
83556;SDS011;73523;55.740;13.276;2023-12-29T00:56:38;3.65;;;1.65;;
83556;SDS011;73523;55.740;13.276;2023-12-29T00:59:03;4.00;;;1.53;;
83556;SDS011;73523;55.740;13.276;2023-12-29T01:01:32;4.83;;;1.70;;
83556;SDS011;73523;55.740;13.276;2023-12-29T01:03:58;3.80;;;1.50;;
83556;SDS011;73523;55.740;13.276;2023-12-29T01:06:24;5.23;;;1.70;;
83556;SDS011;73523;55.740;13.276;2023-12-29T01:08:49;4.22;;;1.60;;
83556;SDS011;73523;55.740;13.276;2023-12-29T01:11:14;4.57;;;1.77;;
83556;SDS011;73523;55.740;13.276;2023-12-29T01:13:40;4.83;;;1.80;;
83556;SDS011;73523;55.740;13.276;2023-12-29T01:16:05;4.55;;;1.88;;
83556;SDS011;73523;55.740;13.276;2023-12-29T01:18:31;3.77;;;1.50;;
83556;SDS011;73523;55.740;13.276;2023-12-29T01:20:57;3.40;;;1.17;;
83556;SDS011;73523;55.740;13.276;2023-12-29T01:23:22;3.60;;;1.60;;
83556;SDS011;73523;55.740;13.276;2023-12-29T01:25:48;4.30;;;1.50;;
83556;SDS011;73523;55.740;13.276;2023-12-29T01:28:13;3.35;;;1.42;;
83556;SDS011;73523;55.740;13.276;2023-12-29T01:30:38;4.43;;;1.80;;
83556;SDS011;73523;55.740;13.276;2023-12-29T01:33:03;4.70;;;1.60;;
83556;SDS011;73523;55.740;13.276;2023-12-29T01:35:29;4.90;;;1.65;;
83556;SDS011;73523;55.740;13.276;2023-12-29T01:37:54;4.23;;;1.70;;
83556;SDS011;73523;55.740;13.276;2023-12-29T01:40:21;4.15;;;1.30;;
83556;SDS011;73523;55.740;13.276;2023-12-29T01:42:47;4.45;;;1.58;;
83556;SDS011;73523;55.740;13.276;2023-12-29T01:45:22;3.53;;;1.50;;
83556;SDS011;73523;55.740;13.276;2023-12-29T01:47:49;3.22;;;1.35;;
83556;SDS011;73523;55.740;13.276;2023-12-29T01:50:16;3.30;;;1.20;;
83556;SDS011;73523;55.740;13.276;2023-12-29T01:52:44;4.35;;;1.40;;
83556;SDS011;73523;55.740;13.276;2023-12-29T01:55:10;5.45;;;1.50;;
83556;SDS011;73523;55.740;13.276;2023-12-29T01:57:40;2.70;;;1.27;;
83556;SDS011;73523;55.740;13.276;2023-12-29T02:00:06;3.67;;;1.37;;
83556;SDS011;73523;55.740;13.276;2023-12-29T02:02:32;3.40;;;1.40;;
83556;SDS011;73523;55.740;13.276;2023-12-29T02:04:57;3.85;;;1.27;;
83556;SDS011;73523;55.740;13.276;2023-12-29T02:07:23;3.65;;;1.50;;
83556;SDS011;73523;55.740;13.276;2023-12-29T02:09:49;4.27;;;1.50;;
83556;SDS011;73523;55.740;13.276;2023-12-29T02:12:16;3.65;;;1.30;;
83556;SDS011;73523;55.740;13.276;2023-12-29T02:14:42;3.92;;;1.30;;
83556;SDS011;73523;55.740;13.276;2023-12-29T02:17:13;3.90;;;1.40;;
83556;SDS011;73523;55.740;13.276;2023-12-29T02:19:43;3.30;;;1.10;;
83556;SDS011;73523;55.740;13.276;2023-12-29T02:22:10;2.75;;;1.30;;
83556;SDS011;73523;55.740;13.276;2023-12-29T02:24:36;4.80;;;1.50;;
83556;SDS011;73523;55.740;13.276;2023-12-29T02:27:11;2.72;;;0.98;;
83556;SDS011;73523;55.740;13.276;2023-12-29T02:29:44;2.53;;;1.13;;
83556;SDS011;73523;55.740;13.276;2023-12-29T02:32:24;3.40;;;1.30;;
83556;SDS011;73523;55.740;13.276;2023-12-29T02:34:55;2.83;;;0.98;;
83556;SDS011;73523;55.740;13.276;2023-12-29T02:37:22;2.58;;;1.27;;
83556;SDS011;73523;55.740;13.276;2023-12-29T02:39:49;2.80;;;1.00;;
83556;SDS011;73523;55.740;13.276;2023-12-29T02:42:14;4.07;;;1.13;;
83556;SDS011;73523;55.740;13.276;2023-12-29T02:44:40;3.23;;;0.97;;
83556;SDS011;73523;55.740;13.276;2023-12-29T02:47:05;2.03;;;0.90;;
83556;SDS011;73523;55.740;13.276;2023-12-29T02:49:31;2.73;;;1.10;;
83556;SDS011;73523;55.740;13.276;2023-12-29T02:51:56;2.22;;;1.00;;
83556;SDS011;73523;55.740;13.276;2023-12-29T02:54:21;4.60;;;1.20;;
83556;SDS011;73523;55.740;13.276;2023-12-29T02:56:47;4.17;;;1.03;;
83556;SDS011;73523;55.740;13.276;2023-12-29T02:59:12;3.00;;;1.10;;
83556;SDS011;73523;55.740;13.276;2023-12-29T03:01:37;3.47;;;1.10;;
83556;SDS011;73523;55.740;13.276;2023-12-29T03:04:03;2.88;;;1.00;;
83556;SDS011;73523;55.740;13.276;2023-12-29T03:06:28;2.67;;;0.90;;
83556;SDS011;73523;55.740;13.276;2023-12-29T03:08:54;2.20;;;0.90;;
83556;SDS011;73523;55.740;13.276;2023-12-29T03:11:19;2.30;;;0.85;;
83556;SDS011;73523;55.740;13.276;2023-12-29T03:13:44;3.00;;;0.90;;
83556;SDS011;73523;55.740;13.276;2023-12-29T03:16:10;1.87;;;0.80;;
83556;SDS011;73523;55.740;13.276;2023-12-29T03:18:35;2.23;;;0.90;;
83556;SDS011;73523;55.740;13.276;2023-12-29T03:21:04;2.25;;;0.80;;
83556;SDS011;73523;55.740;13.276;2023-12-29T03:23:30;2.72;;;0.85;;
83556;SDS011;73523;55.740;13.276;2023-12-29T03:25:55;3.43;;;0.90;;
83556;SDS011;73523;55.740;13.276;2023-12-29T03:28:21;2.63;;;0.90;;
83556;SDS011;73523;55.740;13.276;2023-12-29T03:30:46;2.60;;;1.00;;
83556;SDS011;73523;55.740;13.276;2023-12-29T03:33:11;2.03;;;0.77;;
83556;SDS011;73523;55.740;13.276;2023-12-29T03:35:36;1.93;;;1.00;;
83556;SDS011;73523;55.740;13.276;2023-12-29T03:38:02;1.95;;;0.80;;
83556;SDS011;73523;55.740;13.276;2023-12-29T03:40:27;2.00;;;0.90;;
83556;SDS011;73523;55.740;13.276;2023-12-29T03:42:52;2.23;;;0.80;;
83556;SDS011;73523;55.740;13.276;2023-12-29T03:45:18;1.60;;;0.80;;
83556;SDS011;73523;55.740;13.276;2023-12-29T03:47:43;2.07;;;0.80;;
83556;SDS011;73523;55.740;13.276;2023-12-29T03:50:08;1.87;;;1.00;;
83556;SDS011;73523;55.740;13.276;2023-12-29T03:52:34;1.75;;;0.80;;
83556;SDS011;73523;55.740;13.276;2023-12-29T03:54:59;2.50;;;0.87;;
83556;SDS011;73523;55.740;13.276;2023-12-29T03:57:24;2.27;;;0.70;;
83556;SDS011;73523;55.740;13.276;2023-12-29T03:59:50;2.17;;;0.80;;
83556;SDS011;73523;55.740;13.276;2023-12-29T04:02:15;2.17;;;0.77;;
83556;SDS011;73523;55.740;13.276;2023-12-29T04:04:42;1.90;;;0.95;;
83556;SDS011;73523;55.740;13.276;2023-12-29T04:07:08;2.17;;;0.77;;
83556;SDS011;73523;55.740;13.276;2023-12-29T04:09:33;2.43;;;0.90;;
83556;SDS011;73523;55.740;13.276;2023-12-29T04:11:58;1.73;;;0.70;;
83556;SDS011;73523;55.740;13.276;2023-12-29T04:14:24;2.13;;;0.70;;
83556;SDS011;73523;55.740;13.276;2023-12-29T04:16:49;1.97;;;0.80;;
83556;SDS011;73523;55.740;13.276;2023-12-29T04:19:14;3.30;;;0.77;;
83556;SDS011;73523;55.740;13.276;2023-12-29T04:21:40;2.10;;;0.70;;
83556;SDS011;73523;55.740;13.276;2023-12-29T04:24:05;1.77;;;0.87;;
83556;SDS011;73523;55.740;13.276;2023-12-29T04:26:35;2.57;;;0.90;;
83556;SDS011;73523;55.740;13.276;2023-12-29T04:29:01;1.88;;;0.80;;
83556;SDS011;73523;55.740;13.276;2023-12-29T04:31:26;2.83;;;0.73;;
83556;SDS011;73523;55.740;13.276;2023-12-29T04:33:52;1.63;;;0.70;;
83556;SDS011;73523;55.740;13.276;2023-12-29T04:36:17;2.67;;;0.87;;
83556;SDS011;73523;55.740;13.276;2023-12-29T04:38:42;1.67;;;0.80;;
83556;SDS011;73523;55.740;13.276;2023-12-29T04:41:07;2.07;;;0.70;;
83556;SDS011;73523;55.740;13.276;2023-12-29T04:43:33;2.17;;;0.80;;
83556;SDS011;73523;55.740;13.276;2023-12-29T04:45:58;2.17;;;0.80;;
83556;SDS011;73523;55.740;13.276;2023-12-29T04:48:23;1.80;;;0.60;;
83556;SDS011;73523;55.740;13.276;2023-12-29T04:50:49;1.77;;;0.60;;
83556;SDS011;73523;55.740;13.276;2023-12-29T04:53:14;2.20;;;0.80;;
83556;SDS011;73523;55.740;13.276;2023-12-29T04:55:39;2.20;;;0.80;;
83556;SDS011;73523;55.740;13.276;2023-12-29T04:58:05;1.50;;;0.70;;
83556;SDS011;73523;55.740;13.276;2023-12-29T05:00:30;1.63;;;0.70;;
83556;SDS011;73523;55.740;13.276;2023-12-29T05:02:55;5.80;;;1.20;;
83556;SDS011;73523;55.740;13.276;2023-12-29T05:05:20;11.50;;;1.63;;
83556;SDS011;73523;55.740;13.276;2023-12-29T05:07:46;3.10;;;0.75;;
83556;SDS011;73523;55.740;13.276;2023-12-29T05:10:11;4.03;;;0.77;;
83556;SDS011;73523;55.740;13.276;2023-12-29T05:12:36;4.20;;;0.90;;
83556;SDS011;73523;55.740;13.276;2023-12-29T05:15:02;3.97;;;0.90;;
83556;SDS011;73523;55.740;13.276;2023-12-29T05:17:28;4.43;;;0.70;;
83556;SDS011;73523;55.740;13.276;2023-12-29T05:19:53;3.90;;;1.00;;
83556;SDS011;73523;55.740;13.276;2023-12-29T05:22:18;7.77;;;0.77;;
83556;SDS011;73523;55.740;13.276;2023-12-29T05:24:44;2.80;;;0.70;;
83556;SDS011;73523;55.740;13.276;2023-12-29T05:27:10;2.93;;;0.70;;
83556;SDS011;73523;55.740;13.276;2023-12-29T05:29:35;4.57;;;0.80;;
83556;SDS011;73523;55.740;13.276;2023-12-29T05:32:01;2.20;;;0.60;;
83556;SDS011;73523;55.740;13.276;2023-12-29T05:34:27;1.98;;;0.70;;
83556;SDS011;73523;55.740;13.276;2023-12-29T05:36:53;3.10;;;0.80;;
83556;SDS011;73523;55.740;13.276;2023-12-29T05:39:18;4.22;;;0.60;;
83556;SDS011;73523;55.740;13.276;2023-12-29T05:41:43;3.70;;;0.70;;
83556;SDS011;73523;55.740;13.276;2023-12-29T05:44:09;3.70;;;0.70;;
83556;SDS011;73523;55.740;13.276;2023-12-29T05:46:34;3.67;;;0.77;;
83556;SDS011;73523;55.740;13.276;2023-12-29T05:49:00;3.00;;;0.60;;
83556;SDS011;73523;55.740;13.276;2023-12-29T05:51:25;3.70;;;0.80;;
83556;SDS011;73523;55.740;13.276;2023-12-29T05:53:50;3.03;;;0.80;;
83556;SDS011;73523;55.740;13.276;2023-12-29T05:56:16;2.97;;;0.70;;
83556;SDS011;73523;55.740;13.276;2023-12-29T05:58:41;2.90;;;0.70;;
83556;SDS011;73523;55.740;13.276;2023-12-29T06:01:10;3.42;;;0.50;;
83556;SDS011;73523;55.740;13.276;2023-12-29T06:03:35;3.58;;;0.98;;
83556;SDS011;73523;55.740;13.276;2023-12-29T06:06:01;2.93;;;0.60;;
83556;SDS011;73523;55.740;13.276;2023-12-29T06:08:27;4.07;;;0.80;;
83556;SDS011;73523;55.740;13.276;2023-12-29T06:10:52;2.60;;;0.60;;
83556;SDS011;73523;55.740;13.276;2023-12-29T06:13:18;3.07;;;0.80;;
83556;SDS011;73523;55.740;13.276;2023-12-29T06:15:43;2.88;;;0.65;;
83556;SDS011;73523;55.740;13.276;2023-12-29T06:18:09;3.20;;;0.60;;
83556;SDS011;73523;55.740;13.276;2023-12-29T06:20:34;1.83;;;0.63;;
83556;SDS011;73523;55.740;13.276;2023-12-29T06:22:59;3.10;;;0.80;;
83556;SDS011;73523;55.740;13.276;2023-12-29T06:25:25;2.80;;;0.60;;
83556;SDS011;73523;55.740;13.276;2023-12-29T06:27:51;3.43;;;0.73;;
83556;SDS011;73523;55.740;13.276;2023-12-29T06:30:16;2.33;;;0.82;;
83556;SDS011;73523;55.740;13.276;2023-12-29T06:32:42;1.93;;;0.60;;
83556;SDS011;73523;55.740;13.276;2023-12-29T06:35:07;2.83;;;0.60;;
83556;SDS011;73523;55.740;13.276;2023-12-29T06:37:35;2.33;;;0.70;;
83556;SDS011;73523;55.740;13.276;2023-12-29T06:40:02;2.53;;;0.63;;
83556;SDS011;73523;55.740;13.276;2023-12-29T06:42:28;3.10;;;0.50;;
83556;SDS011;73523;55.740;13.276;2023-12-29T06:44:54;2.53;;;0.70;;
83556;SDS011;73523;55.740;13.276;2023-12-29T06:47:19;3.67;;;0.63;;
83556;SDS011;73523;55.740;13.276;2023-12-29T06:49:44;1.13;;;0.40;;
83556;SDS011;73523;55.740;13.276;2023-12-29T06:52:10;3.43;;;0.70;;
83556;SDS011;73523;55.740;13.276;2023-12-29T06:54:35;2.03;;;0.40;;
83556;SDS011;73523;55.740;13.276;2023-12-29T06:57:00;2.40;;;0.60;;
83556;SDS011;73523;55.740;13.276;2023-12-29T06:59:26;2.47;;;0.50;;
83556;SDS011;73523;55.740;13.276;2023-12-29T07:01:51;1.63;;;0.47;;
83556;SDS011;73523;55.740;13.276;2023-12-29T07:04:16;2.60;;;0.60;;
83556;SDS011;73523;55.740;13.276;2023-12-29T07:06:42;5.40;;;0.50;;
83556;SDS011;73523;55.740;13.276;2023-12-29T07:09:07;3.70;;;0.57;;
83556;SDS011;73523;55.740;13.276;2023-12-29T07:11:33;1.85;;;0.52;;
83556;SDS011;73523;55.740;13.276;2023-12-29T07:13:59;2.10;;;0.70;;
83556;SDS011;73523;55.740;13.276;2023-12-29T07:16:24;2.10;;;0.70;;
83556;SDS011;73523;55.740;13.276;2023-12-29T07:18:50;4.60;;;0.70;;
83556;SDS011;73523;55.740;13.276;2023-12-29T07:21:15;1.88;;;0.50;;
83556;SDS011;73523;55.740;13.276;2023-12-29T07:23:43;3.05;;;0.60;;
83556;SDS011;73523;55.740;13.276;2023-12-29T07:26:08;1.75;;;0.77;;
83556;SDS011;73523;55.740;13.276;2023-12-29T07:28:34;2.13;;;0.63;;
83556;SDS011;73523;55.740;13.276;2023-12-29T07:31:00;2.55;;;0.73;;
83556;SDS011;73523;55.740;13.276;2023-12-29T07:33:25;2.22;;;0.70;;
83556;SDS011;73523;55.740;13.276;2023-12-29T07:35:51;2.50;;;0.50;;
83556;SDS011;73523;55.740;13.276;2023-12-29T07:38:17;3.00;;;0.70;;
83556;SDS011;73523;55.740;13.276;2023-12-29T07:40:42;2.13;;;0.70;;
83556;SDS011;73523;55.740;13.276;2023-12-29T07:43:07;2.17;;;0.40;;
83556;SDS011;73523;55.740;13.276;2023-12-29T07:45:33;2.90;;;0.87;;
83556;SDS011;73523;55.740;13.276;2023-12-29T07:47:58;4.10;;;0.90;;
83556;SDS011;73523;55.740;13.276;2023-12-29T07:50:24;3.57;;;0.70;;
83556;SDS011;73523;55.740;13.276;2023-12-29T07:52:49;4.18;;;0.73;;
83556;SDS011;73523;55.740;13.276;2023-12-29T07:55:15;5.53;;;0.83;;
83556;SDS011;73523;55.740;13.276;2023-12-29T07:57:41;2.03;;;0.80;;
83556;SDS011;73523;55.740;13.276;2023-12-29T08:00:08;2.38;;;0.77;;
83556;SDS011;73523;55.740;13.276;2023-12-29T08:02:34;5.75;;;1.00;;
83556;SDS011;73523;55.740;13.276;2023-12-29T08:04:59;3.77;;;0.80;;
83556;SDS011;73523;55.740;13.276;2023-12-29T08:07:24;3.97;;;0.80;;
83556;SDS011;73523;55.740;13.276;2023-12-29T08:09:50;4.47;;;0.83;;
83556;SDS011;73523;55.740;13.276;2023-12-29T08:12:15;2.43;;;0.80;;
83556;SDS011;73523;55.740;13.276;2023-12-29T08:14:40;3.30;;;0.87;;
83556;SDS011;73523;55.740;13.276;2023-12-29T08:17:06;3.90;;;0.63;;
83556;SDS011;73523;55.740;13.276;2023-12-29T08:19:32;3.33;;;0.90;;
83556;SDS011;73523;55.740;13.276;2023-12-29T08:21:57;2.03;;;0.60;;
83556;SDS011;73523;55.740;13.276;2023-12-29T08:24:22;3.10;;;0.80;;
83556;SDS011;73523;55.740;13.276;2023-12-29T08:26:48;3.47;;;0.80;;
83556;SDS011;73523;55.740;13.276;2023-12-29T08:29:13;2.93;;;0.73;;
83556;SDS011;73523;55.740;13.276;2023-12-29T08:31:39;3.27;;;1.00;;
83556;SDS011;73523;55.740;13.276;2023-12-29T08:34:04;3.83;;;0.80;;
83556;SDS011;73523;55.740;13.276;2023-12-29T08:36:30;3.37;;;0.70;;
83556;SDS011;73523;55.740;13.276;2023-12-29T08:38:55;2.70;;;0.80;;
83556;SDS011;73523;55.740;13.276;2023-12-29T08:41:21;4.40;;;0.85;;
83556;SDS011;73523;55.740;13.276;2023-12-29T08:43:47;3.93;;;0.90;;
83556;SDS011;73523;55.740;13.276;2023-12-29T08:46:12;2.87;;;1.00;;
83556;SDS011;73523;55.740;13.276;2023-12-29T08:48:38;2.65;;;0.80;;
83556;SDS011;73523;55.740;13.276;2023-12-29T08:51:03;3.93;;;1.00;;
83556;SDS011;73523;55.740;13.276;2023-12-29T08:53:28;2.20;;;0.80;;
83556;SDS011;73523;55.740;13.276;2023-12-29T08:55:58;3.70;;;0.90;;
83556;SDS011;73523;55.740;13.276;2023-12-29T08:58:23;3.13;;;0.80;;
83556;SDS011;73523;55.740;13.276;2023-12-29T09:00:49;3.83;;;0.90;;
83556;SDS011;73523;55.740;13.276;2023-12-29T09:03:14;3.50;;;0.90;;
83556;SDS011;73523;55.740;13.276;2023-12-29T09:05:39;4.23;;;1.17;;
83556;SDS011;73523;55.740;13.276;2023-12-29T09:08:05;3.23;;;1.10;;
83556;SDS011;73523;55.740;13.276;2023-12-29T09:10:30;10.20;;;1.37;;
83556;SDS011;73523;55.740;13.276;2023-12-29T09:12:55;4.25;;;0.93;;
83556;SDS011;73523;55.740;13.276;2023-12-29T09:15:21;5.03;;;1.00;;
83556;SDS011;73523;55.740;13.276;2023-12-29T09:17:46;5.40;;;1.10;;
83556;SDS011;73523;55.740;13.276;2023-12-29T09:20:11;5.07;;;0.98;;
83556;SDS011;73523;55.740;13.276;2023-12-29T09:22:37;6.13;;;1.10;;
83556;SDS011;73523;55.740;13.276;2023-12-29T09:25:03;6.50;;;1.23;;
83556;SDS011;73523;55.740;13.276;2023-12-29T09:27:29;6.18;;;1.08;;
83556;SDS011;73523;55.740;13.276;2023-12-29T09:29:54;3.63;;;0.97;;
83556;SDS011;73523;55.740;13.276;2023-12-29T09:32:19;7.43;;;1.00;;
83556;SDS011;73523;55.740;13.276;2023-12-29T09:34:44;6.88;;;1.00;;
83556;SDS011;73523;55.740;13.276;2023-12-29T09:37:10;4.00;;;1.10;;
83556;SDS011;73523;55.740;13.276;2023-12-29T09:39:35;6.27;;;1.13;;
83556;SDS011;73523;55.740;13.276;2023-12-29T09:42:01;5.72;;;1.13;;
83556;SDS011;73523;55.740;13.276;2023-12-29T09:44:29;3.73;;;1.00;;
83556;SDS011;73523;55.740;13.276;2023-12-29T09:46:57;4.82;;;1.00;;
83556;SDS011;73523;55.740;13.276;2023-12-29T09:49:26;4.53;;;0.90;;
83556;SDS011;73523;55.740;13.276;2023-12-29T09:51:55;4.78;;;0.93;;
83556;SDS011;73523;55.740;13.276;2023-12-29T09:54:23;3.78;;;1.17;;
83556;SDS011;73523;55.740;13.276;2023-12-29T09:56:49;6.65;;;1.00;;
83556;SDS011;73523;55.740;13.276;2023-12-29T09:59:14;2.83;;;0.90;;
83556;SDS011;73523;55.740;13.276;2023-12-29T10:01:41;3.28;;;0.90;;
83556;SDS011;73523;55.740;13.276;2023-12-29T10:04:10;4.13;;;1.05;;
83556;SDS011;73523;55.740;13.276;2023-12-29T10:06:36;4.68;;;1.40;;
83556;SDS011;73523;55.740;13.276;2023-12-29T10:09:06;3.58;;;0.90;;
83556;SDS011;73523;55.740;13.276;2023-12-29T10:11:37;4.07;;;1.00;;
83556;SDS011;73523;55.740;13.276;2023-12-29T10:14:09;3.15;;;0.95;;
83556;SDS011;73523;55.740;13.276;2023-12-29T10:16:50;5.47;;;1.10;;
83556;SDS011;73523;55.740;13.276;2023-12-29T10:22:20;4.43;;;1.20;;
83556;SDS011;73523;55.740;13.276;2023-12-29T10:24:51;5.38;;;1.13;;
83556;SDS011;73523;55.740;13.276;2023-12-29T10:27:17;5.35;;;1.08;;
83556;SDS011;73523;55.740;13.276;2023-12-29T10:29:42;3.10;;;1.00;;
83556;SDS011;73523;55.740;13.276;2023-12-29T10:32:08;5.07;;;1.30;;
83556;SDS011;73523;55.740;13.276;2023-12-29T10:34:34;3.92;;;0.90;;
83556;SDS011;73523;55.740;13.276;2023-12-29T10:37:00;3.70;;;1.23;;
83556;SDS011;73523;55.740;13.276;2023-12-29T10:39:40;4.93;;;1.10;;
83556;SDS011;73523;55.740;13.276;2023-12-29T10:42:20;5.47;;;1.02;;
83556;SDS011;73523;55.740;13.276;2023-12-29T10:44:45;4.43;;;1.10;;
83556;SDS011;73523;55.740;13.276;2023-12-29T10:47:11;3.25;;;1.20;;
83556;SDS011;73523;55.740;13.276;2023-12-29T10:49:37;3.83;;;1.05;;
83556;SDS011;73523;55.740;13.276;2023-12-29T10:52:12;6.00;;;1.37;;
83556;SDS011;73523;55.740;13.276;2023-12-29T10:54:41;4.70;;;1.30;;
83556;SDS011;73523;55.740;13.276;2023-12-29T10:57:08;6.90;;;1.30;;
83556;SDS011;73523;55.740;13.276;2023-12-29T10:59:35;4.63;;;1.20;;
83556;SDS011;73523;55.740;13.276;2023-12-29T11:02:01;3.57;;;1.10;;
83556;SDS011;73523;55.740;13.276;2023-12-29T11:04:29;3.22;;;0.90;;
83556;SDS011;73523;55.740;13.276;2023-12-29T11:06:55;4.13;;;1.10;;
83556;SDS011;73523;55.740;13.276;2023-12-29T11:09:27;5.43;;;1.30;;
83556;SDS011;73523;55.740;13.276;2023-12-29T11:11:56;3.40;;;0.93;;
83556;SDS011;73523;55.740;13.276;2023-12-29T11:14:24;4.70;;;1.08;;
83556;SDS011;73523;55.740;13.276;2023-12-29T11:16:51;3.50;;;1.00;;
83556;SDS011;73523;55.740;13.276;2023-12-29T11:19:17;4.13;;;1.43;;
83556;SDS011;73523;55.740;13.276;2023-12-29T11:21:43;5.43;;;1.20;;
83556;SDS011;73523;55.740;13.276;2023-12-29T11:24:09;5.18;;;1.40;;
83556;SDS011;73523;55.740;13.276;2023-12-29T11:26:35;4.43;;;1.10;;
83556;SDS011;73523;55.740;13.276;2023-12-29T11:29:01;13.13;;;1.70;;
83556;SDS011;73523;55.740;13.276;2023-12-29T11:31:29;4.80;;;1.10;;
83556;SDS011;73523;55.740;13.276;2023-12-29T11:34:05;4.88;;;1.30;;
83556;SDS011;73523;55.740;13.276;2023-12-29T11:36:37;4.38;;;1.20;;
83556;SDS011;73523;55.740;13.276;2023-12-29T11:39:12;5.57;;;1.10;;
83556;SDS011;73523;55.740;13.276;2023-12-29T11:41:47;5.65;;;1.08;;
83556;SDS011;73523;55.740;13.276;2023-12-29T11:44:24;4.88;;;1.30;;
83556;SDS011;73523;55.740;13.276;2023-12-29T11:46:50;5.53;;;1.40;;
83556;SDS011;73523;55.740;13.276;2023-12-29T11:49:16;4.37;;;0.90;;
83556;SDS011;73523;55.740;13.276;2023-12-29T11:51:42;6.90;;;1.20;;
83556;SDS011;73523;55.740;13.276;2023-12-29T11:54:08;4.67;;;1.30;;
83556;SDS011;73523;55.740;13.276;2023-12-29T11:56:38;4.43;;;1.20;;
83556;SDS011;73523;55.740;13.276;2023-12-29T12:01:38;6.68;;;1.20;;
83556;SDS011;73523;55.740;13.276;2023-12-29T12:04:04;3.17;;;1.03;;
83556;SDS011;73523;55.740;13.276;2023-12-29T12:06:39;3.77;;;0.97;;
83556;SDS011;73523;55.740;13.276;2023-12-29T12:09:17;5.03;;;1.13;;
83556;SDS011;73523;55.740;13.276;2023-12-29T12:11:47;3.97;;;1.20;;
83556;SDS011;73523;55.740;13.276;2023-12-29T12:14:59;6.13;;;1.13;;
83556;SDS011;73523;55.740;13.276;2023-12-29T12:17:12;6.65;;;1.30;;
83556;SDS011;73523;55.740;13.276;2023-12-29T12:19:51;4.80;;;1.17;;
83556;SDS011;73523;55.740;13.276;2023-12-29T12:22:17;7.33;;;1.37;;
83556;SDS011;73523;55.740;13.276;2023-12-29T12:24:43;3.50;;;1.20;;
83556;SDS011;73523;55.740;13.276;2023-12-29T12:27:09;6.00;;;1.13;;
83556;SDS011;73523;55.740;13.276;2023-12-29T12:29:35;2.72;;;1.10;;
83556;SDS011;73523;55.740;13.276;2023-12-29T12:32:01;3.53;;;1.05;;
83556;SDS011;73523;55.740;13.276;2023-12-29T12:34:27;3.88;;;1.35;;
83556;SDS011;73523;55.740;13.276;2023-12-29T12:37:02;3.78;;;1.20;;
83556;SDS011;73523;55.740;13.276;2023-12-29T12:39:38;7.17;;;1.30;;
83556;SDS011;73523;55.740;13.276;2023-12-29T12:42:06;4.32;;;1.40;;
83556;SDS011;73523;55.740;13.276;2023-12-29T12:44:32;4.93;;;1.20;;
83556;SDS011;73523;55.740;13.276;2023-12-29T12:46:58;4.90;;;1.40;;
83556;SDS011;73523;55.740;13.276;2023-12-29T12:49:26;6.67;;;1.40;;
83556;SDS011;73523;55.740;13.276;2023-12-29T12:51:55;6.13;;;1.10;;
83556;SDS011;73523;55.740;13.276;2023-12-29T12:54:20;3.87;;;1.00;;
83556;SDS011;73523;55.740;13.276;2023-12-29T12:56:47;3.83;;;1.00;;
83556;SDS011;73523;55.740;13.276;2023-12-29T12:59:13;3.78;;;1.20;;
83556;SDS011;73523;55.740;13.276;2023-12-29T13:01:39;4.30;;;1.40;;
83556;SDS011;73523;55.740;13.276;2023-12-29T13:04:05;5.53;;;1.25;;
83556;SDS011;73523;55.740;13.276;2023-12-29T13:06:32;5.22;;;1.45;;
83556;SDS011;73523;55.740;13.276;2023-12-29T13:08:58;6.13;;;1.33;;
83556;SDS011;73523;55.740;13.276;2023-12-29T13:11:24;4.65;;;1.33;;
83556;SDS011;73523;55.740;13.276;2023-12-29T13:13:50;4.03;;;1.23;;
83556;SDS011;73523;55.740;13.276;2023-12-29T13:16:28;7.93;;;2.15;;
83556;SDS011;73523;55.740;13.276;2023-12-29T13:19:22;4.82;;;1.45;;
83556;SDS011;73523;55.740;13.276;2023-12-29T13:21:51;6.18;;;1.70;;
83556;SDS011;73523;55.740;13.276;2023-12-29T13:24:23;5.47;;;1.47;;
83556;SDS011;73523;55.740;13.276;2023-12-29T13:26:50;8.55;;;1.40;;
83556;SDS011;73523;55.740;13.276;2023-12-29T13:29:21;9.52;;;1.50;;
83556;SDS011;73523;55.740;13.276;2023-12-29T13:31:49;7.05;;;1.63;;
83556;SDS011;73523;55.740;13.276;2023-12-29T13:34:23;7.60;;;1.50;;
83556;SDS011;73523;55.740;13.276;2023-12-29T13:36:54;5.90;;;1.45;;
83556;SDS011;73523;55.740;13.276;2023-12-29T13:39:41;5.35;;;1.38;;
83556;SDS011;73523;55.740;13.276;2023-12-29T13:42:10;4.35;;;1.15;;
83556;SDS011;73523;55.740;13.276;2023-12-29T13:44:40;4.15;;;1.33;;
83556;SDS011;73523;55.740;13.276;2023-12-29T13:47:06;5.35;;;1.40;;
83556;SDS011;73523;55.740;13.276;2023-12-29T13:49:32;4.00;;;1.15;;
83556;SDS011;73523;55.740;13.276;2023-12-29T13:52:01;5.65;;;1.60;;
83556;SDS011;73523;55.740;13.276;2023-12-29T13:54:28;4.95;;;1.40;;
83556;SDS011;73523;55.740;13.276;2023-12-29T13:56:53;7.23;;;1.23;;
83556;SDS011;73523;55.740;13.276;2023-12-29T13:59:28;7.33;;;1.20;;
83556;SDS011;73523;55.740;13.276;2023-12-29T14:01:54;5.25;;;1.30;;
83556;SDS011;73523;55.740;13.276;2023-12-29T14:04:20;3.97;;;1.33;;
83556;SDS011;73523;55.740;13.276;2023-12-29T14:06:55;5.30;;;1.20;;
83556;SDS011;73523;55.740;13.276;2023-12-29T14:09:26;5.22;;;1.40;;
83556;SDS011;73523;55.740;13.276;2023-12-29T14:11:51;5.78;;;1.30;;
83556;SDS011;73523;55.740;13.276;2023-12-29T14:14:21;3.70;;;1.23;;
83556;SDS011;73523;55.740;13.276;2023-12-29T14:16:47;6.10;;;1.38;;
83556;SDS011;73523;55.740;13.276;2023-12-29T14:19:13;5.27;;;1.03;;
83556;SDS011;73523;55.740;13.276;2023-12-29T14:21:38;3.60;;;1.00;;
83556;SDS011;73523;55.740;13.276;2023-12-29T14:27:01;4.47;;;1.15;;
83556;SDS011;73523;55.740;13.276;2023-12-29T14:29:27;3.43;;;1.07;;
83556;SDS011;73523;55.740;13.276;2023-12-29T14:31:53;3.67;;;1.00;;
83556;SDS011;73523;55.740;13.276;2023-12-29T14:34:21;4.28;;;1.10;;
83556;SDS011;73523;55.740;13.276;2023-12-29T14:36:46;4.50;;;1.20;;
83556;SDS011;73523;55.740;13.276;2023-12-29T14:39:12;8.13;;;1.17;;